sensor_id;sensor_type;location;lat;lon;timestamp;pressure;altitude;pressure_sealevel;temperature;humidity
55679;BME280;41573;51.446;-2.018;2022-08-19T00:01:42;100426.47;;;18.51;100.00
55679;BME280;41573;51.446;-2.018;2022-08-19T00:04:12;100424.59;;;18.51;100.00
55679;BME280;41573;51.446;-2.018;2022-08-19T00:06:40;100421.06;;;18.51;100.00
55679;BME280;41573;51.446;-2.018;2022-08-19T00:09:09;100424.75;;;18.50;100.00
55679;BME280;41573;51.446;-2.018;2022-08-19T00:11:35;100419.50;;;18.48;100.00
55679;BME280;41573;51.446;-2.018;2022-08-19T00:14:03;100415.94;;;18.48;100.00
55679;BME280;41573;51.446;-2.018;2022-08-19T00:16:29;100413.25;;;18.48;100.00
55679;BME280;41573;51.446;-2.018;2022-08-19T00:18:55;100406.88;;;18.49;100.00
55679;BME280;41573;51.446;-2.018;2022-08-19T00:21:22;100405.03;;;18.49;100.00
55679;BME280;41573;51.446;-2.018;2022-08-19T00:23:47;100402.63;;;18.46;100.00
55679;BME280;41573;51.446;-2.018;2022-08-19T00:26:13;100409.72;;;18.47;100.00
55679;BME280;41573;51.446;-2.018;2022-08-19T00:28:38;100397.94;;;18.48;100.00
55679;BME280;41573;51.446;-2.018;2022-08-19T00:31:05;100396.38;;;18.46;100.00
55679;BME280;41573;51.446;-2.018;2022-08-19T00:33:32;100400.78;;;18.47;100.00
55679;BME280;41573;51.446;-2.018;2022-08-19T00:35:59;100391.97;;;18.44;100.00
55679;BME280;41573;51.446;-2.018;2022-08-19T00:38:24;100394.69;;;18.44;100.00
55679;BME280;41573;51.446;-2.018;2022-08-19T00:40:50;100398.25;;;18.45;100.00
55679;BME280;41573;51.446;-2.018;2022-08-19T00:43:19;100401.47;;;18.49;100.00
55679;BME280;41573;51.446;-2.018;2022-08-19T00:45:45;100393.00;;;18.43;100.00
55679;BME280;41573;51.446;-2.018;2022-08-19T00:48:10;100394.84;;;18.43;100.00
55679;BME280;41573;51.446;-2.018;2022-08-19T00:50:39;100397.69;;;18.41;100.00
55679;BME280;41573;51.446;-2.018;2022-08-19T00:53:06;100405.75;;;18.41;100.00
55679;BME280;41573;51.446;-2.018;2022-08-19T00:55:32;100397.38;;;18.44;100.00
55679;BME280;41573;51.446;-2.018;2022-08-19T00:58:03;100402.63;;;18.46;100.00
55679;BME280;41573;51.446;-2.018;2022-08-19T01:00:30;100401.22;;;18.42;100.00
55679;BME280;41573;51.446;-2.018;2022-08-19T01:02:56;100394.97;;;18.41;100.00
55679;BME280;41573;51.446;-2.018;2022-08-19T01:05:25;100401.81;;;18.36;100.00
55679;BME280;41573;51.446;-2.018;2022-08-19T01:07:53;100407.22;;;18.36;100.00
55679;BME280;41573;51.446;-2.018;2022-08-19T01:10:22;100407.50;;;18.33;100.00
55679;BME280;41573;51.446;-2.018;2022-08-19T01:12:48;100415.03;;;18.29;100.00
55679;BME280;41573;51.446;-2.018;2022-08-19T01:15:17;100414.63;;;18.24;100.00
55679;BME280;41573;51.446;-2.018;2022-08-19T01:17:44;100420.31;;;18.21;100.00
55679;BME280;41573;51.446;-2.018;2022-08-19T01:20:17;100420.47;;;18.19;100.00
55679;BME280;41573;51.446;-2.018;2022-08-19T01:22:47;100418.19;;;18.15;100.00
55679;BME280;41573;51.446;-2.018;2022-08-19T01:25:15;100423.19;;;18.09;100.00
55679;BME280;41573;51.446;-2.018;2022-08-19T01:27:47;100417.78;;;18.09;100.00
55679;BME280;41573;51.446;-2.018;2022-08-19T01:30:17;100418.78;;;18.08;100.00
55679;BME280;41573;51.446;-2.018;2022-08-19T01:32:42;100416.38;;;18.05;100.00
55679;BME280;41573;51.446;-2.018;2022-08-19T01:35:09;100414.25;;;17.99;100.00
55679;BME280;41573;51.446;-2.018;2022-08-19T01:37:54;100424.34;;;17.97;100.00
55679;BME280;41573;51.446;-2.018;2022-08-19T01:40:22;100426.19;;;17.97;100.00
55679;BME280;41573;51.446;-2.018;2022-08-19T01:42:49;100423.19;;;17.90;100.00
55679;BME280;41573;51.446;-2.018;2022-08-19T01:45:16;100409.16;;;17.96;100.00
55679;BME280;41573;51.446;-2.018;2022-08-19T01:47:41;100418.09;;;17.87;100.00
55679;BME280;41573;51.446;-2.018;2022-08-19T01:50:09;100411.28;;;17.83;100.00
55679;BME280;41573;51.446;-2.018;2022-08-19T01:52:37;100407.00;;;17.90;100.00
55679;BME280;41573;51.446;-2.018;2022-08-19T01:55:05;100409.84;;;17.88;100.00
55679;BME280;41573;51.446;-2.018;2022-08-19T01:57:31;100411.69;;;17.88;100.00
55679;BME280;41573;51.446;-2.018;2022-08-19T01:59:56;100410.84;;;17.87;100.00
55679;BME280;41573;51.446;-2.018;2022-08-19T02:02:22;100421.47;;;17.89;100.00
55679;BME280;41573;51.446;-2.018;2022-08-19T02:04:48;100432.25;;;17.89;100.00
55679;BME280;41573;51.446;-2.018;2022-08-19T02:07:13;100427.75;;;17.80;100.00
55679;BME280;41573;51.446;-2.018;2022-08-19T02:09:39;100429.56;;;17.79;100.00
55679;BME280;41573;51.446;-2.018;2022-08-19T02:12:06;100420.66;;;17.79;100.00
55679;BME280;41573;51.446;-2.018;2022-08-19T02:14:34;100427.31;;;17.74;100.00
55679;BME280;41573;51.446;-2.018;2022-08-19T02:16:59;100434.69;;;17.72;100.00
55679;BME280;41573;51.446;-2.018;2022-08-19T02:19:25;100425.19;;;17.68;100.00
55679;BME280;41573;51.446;-2.018;2022-08-19T02:21:50;100429.84;;;17.66;100.00
55679;BME280;41573;51.446;-2.018;2022-08-19T02:24:16;100428.59;;;17.61;100.00
55679;BME280;41573;51.446;-2.018;2022-08-19T02:26:41;100428.03;;;17.57;100.00
55679;BME280;41573;51.446;-2.018;2022-08-19T02:29:07;100433.41;;;17.57;100.00
55679;BME280;41573;51.446;-2.018;2022-08-19T02:31:32;100444.47;;;17.54;100.00
55679;BME280;41573;51.446;-2.018;2022-08-19T02:33:58;100444.72;;;17.51;100.00
55679;BME280;41573;51.446;-2.018;2022-08-19T02:36:24;100453.09;;;17.48;100.00
55679;BME280;41573;51.446;-2.018;2022-08-19T02:38:50;100453.09;;;17.48;100.00
55679;BME280;41573;51.446;-2.018;2022-08-19T02:41:28;100446.13;;;17.45;100.00
55679;BME280;41573;51.446;-2.018;2022-08-19T02:43:59;100440.91;;;17.44;100.00
55679;BME280;41573;51.446;-2.018;2022-08-19T02:46:28;100444.16;;;17.37;100.00
55679;BME280;41573;51.446;-2.018;2022-08-19T02:48:56;100443.31;;;17.37;100.00
55679;BME280;41573;51.446;-2.018;2022-08-19T02:51:25;100437.06;;;17.36;100.00
55679;BME280;41573;51.446;-2.018;2022-08-19T02:53:51;100432.53;;;17.27;100.00
55679;BME280;41573;51.446;-2.018;2022-08-19T02:56:17;100444.00;;;17.29;100.00
55679;BME280;41573;51.446;-2.018;2022-08-19T02:58:43;100432.69;;;17.26;100.00
55679;BME280;41573;51.446;-2.018;2022-08-19T03:01:09;100431.13;;;17.23;100.00
55679;BME280;41573;51.446;-2.018;2022-08-19T03:03:35;100440.16;;;17.22;100.00
55679;BME280;41573;51.446;-2.018;2022-08-19T03:06:13;100447.41;;;17.21;100.00
55679;BME280;41573;51.446;-2.018;2022-08-19T03:08:42;100445.69;;;17.20;100.00
55679;BME280;41573;51.446;-2.018;2022-08-19T03:11:29;100445.84;;;17.19;100.00
55679;BME280;41573;51.446;-2.018;2022-08-19T03:13:56;100441.44;;;17.18;100.00
55679;BME280;41573;51.446;-2.018;2022-08-19T03:16:25;100442.16;;;17.20;100.00
55679;BME280;41573;51.446;-2.018;2022-08-19T03:18:51;100431.66;;;17.17;100.00
55679;BME280;41573;51.446;-2.018;2022-08-19T03:21:20;100448.09;;;17.14;100.00
55679;BME280;41573;51.446;-2.018;2022-08-19T03:23:47;100447.09;;;17.15;100.00
55679;BME280;41573;51.446;-2.018;2022-08-19T03:26:12;100451.78;;;17.13;100.00
55679;BME280;41573;51.446;-2.018;2022-08-19T03:28:40;100454.47;;;17.13;100.00
55679;BME280;41573;51.446;-2.018;2022-08-19T03:31:09;100455.47;;;17.12;100.00
55679;BME280;41573;51.446;-2.018;2022-08-19T03:33:35;100448.38;;;17.11;100.00
55679;BME280;41573;51.446;-2.018;2022-08-19T03:36:11;100453.75;;;17.11;100.00
55679;BME280;41573;51.446;-2.018;2022-08-19T03:38:39;100450.78;;;17.14;100.00
55679;BME280;41573;51.446;-2.018;2022-08-19T03:41:08;100448.09;;;17.14;100.00
55679;BME280;41573;51.446;-2.018;2022-08-19T03:43:38;100455.31;;;17.13;100.00
55679;BME280;41573;51.446;-2.018;2022-08-19T03:46:08;100458.00;;;17.13;100.00
55679;BME280;41573;51.446;-2.018;2022-08-19T03:48:35;100459.00;;;17.12;100.00
55679;BME280;41573;51.446;-2.018;2022-08-19T03:51:02;100452.47;;;17.05;100.00
55679;BME280;41573;51.446;-2.018;2022-08-19T03:53:29;100449.31;;;17.00;100.00
55679;BME280;41573;51.446;-2.018;2022-08-19T03:55:55;100453.00;;;16.99;100.00
55679;BME280;41573;51.446;-2.018;2022-08-19T03:58:22;100443.53;;;16.95;100.00
55679;BME280;41573;51.446;-2.018;2022-08-19T04:00:48;100439.94;;;16.94;100.00
55679;BME280;41573;51.446;-2.018;2022-08-19T04:03:14;100444.63;;;16.92;100.00
55679;BME280;41573;51.446;-2.018;2022-08-19T04:05:39;100445.63;;;16.91;100.00
55679;BME280;41573;51.446;-2.018;2022-08-19T04:08:05;100445.63;;;16.91;100.00
55679;BME280;41573;51.446;-2.018;2022-08-19T04:10:36;100432.31;;;16.89;100.00
55679;BME280;41573;51.446;-2.018;2022-08-19T04:13:03;100450.00;;;16.92;100.00
55679;BME280;41573;51.446;-2.018;2022-08-19T04:15:31;100454.91;;;16.87;100.00
55679;BME280;41573;51.446;-2.018;2022-08-19T04:18:01;100457.59;;;16.87;100.00
55679;BME280;41573;51.446;-2.018;2022-08-19T04:20:26;100456.75;;;16.86;100.00
55679;BME280;41573;51.446;-2.018;2022-08-19T04:22:51;100457.19;;;16.82;100.00
55679;BME280;41573;51.446;-2.018;2022-08-19T04:25:17;100454.75;;;16.79;100.00
55679;BME280;41573;51.446;-2.018;2022-08-19T04:27:42;100467.94;;;16.82;100.00
55679;BME280;41573;51.446;-2.018;2022-08-19T04:30:12;100460.69;;;16.82;100.00
55679;BME280;41573;51.446;-2.018;2022-08-19T04:32:37;100468.63;;;16.84;100.00
55679;BME280;41573;51.446;-2.018;2022-08-19T04:35:04;100458.88;;;16.83;100.00
55679;BME280;41573;51.446;-2.018;2022-08-19T04:37:30;100464.38;;;16.81;100.00
55679;BME280;41573;51.446;-2.018;2022-08-19T04:39:57;100462.09;;;16.77;100.00
55679;BME280;41573;51.446;-2.018;2022-08-19T04:42:41;100459.69;;;16.74;100.00
55679;BME280;41573;51.446;-2.018;2022-08-19T04:45:12;100459.69;;;16.74;100.00
55679;BME280;41573;51.446;-2.018;2022-08-19T04:47:41;100468.88;;;16.71;100.00
55679;BME280;41573;51.446;-2.018;2022-08-19T04:50:09;100461.53;;;16.73;100.00
55679;BME280;41573;51.446;-2.018;2022-08-19T04:52:38;100460.66;;;16.72;100.00
55679;BME280;41573;51.446;-2.018;2022-08-19T04:55:09;100464.38;;;16.71;100.00
55679;BME280;41573;51.446;-2.018;2022-08-19T04:57:34;100477.81;;;16.71;100.00
55679;BME280;41573;51.446;-2.018;2022-08-19T05:00:00;100471.00;;;16.67;100.00
55679;BME280;41573;51.446;-2.018;2022-08-19T05:02:26;100477.06;;;16.69;100.00
55679;BME280;41573;51.446;-2.018;2022-08-19T05:04:57;100477.34;;;16.66;100.00
55679;BME280;41573;51.446;-2.018;2022-08-19T05:07:23;100475.50;;;16.67;100.00
55679;BME280;41573;51.446;-2.018;2022-08-19T05:09:48;100474.66;;;16.66;100.00
55679;BME280;41573;51.446;-2.018;2022-08-19T05:12:13;100480.75;;;16.68;100.00
55679;BME280;41573;51.446;-2.018;2022-08-19T05:14:39;100481.00;;;16.65;100.00
55679;BME280;41573;51.446;-2.018;2022-08-19T05:17:04;100494.91;;;16.70;100.00
55679;BME280;41573;51.446;-2.018;2022-08-19T05:19:30;100499.41;;;16.70;100.00
55679;BME280;41573;51.446;-2.018;2022-08-19T05:22:13;100495.91;;;16.69;100.00
55679;BME280;41573;51.446;-2.018;2022-08-19T05:24:58;100483.44;;;16.68;100.00
55679;BME280;41573;51.446;-2.018;2022-08-19T05:27:24;100494.47;;;16.65;100.00
55679;BME280;41573;51.446;-2.018;2022-08-19T05:29:49;100486.66;;;16.62;100.00
55679;BME280;41573;51.446;-2.018;2022-08-19T05:32:15;100490.75;;;16.57;100.00
55679;BME280;41573;51.446;-2.018;2022-08-19T05:34:41;100491.84;;;16.54;100.00
55679;BME280;41573;51.446;-2.018;2022-08-19T05:37:06;100493.97;;;16.50;100.00
55679;BME280;41573;51.446;-2.018;2022-08-19T05:39:34;100499.03;;;16.44;100.00
55679;BME280;41573;51.446;-2.018;2022-08-19T05:42:04;100506.25;;;16.43;100.00
55679;BME280;41573;51.446;-2.018;2022-08-19T05:44:33;100512.84;;;16.39;100.00
55679;BME280;41573;51.446;-2.018;2022-08-19T05:47:03;100524.59;;;16.38;100.00
55679;BME280;41573;51.446;-2.018;2022-08-19T05:49:31;100525.44;;;16.38;100.00
55679;BME280;41573;51.446;-2.018;2022-08-19T05:51:57;100530.81;;;16.38;100.00
55679;BME280;41573;51.446;-2.018;2022-08-19T05:54:24;100527.88;;;16.42;100.00
55679;BME280;41573;51.446;-2.018;2022-08-19T05:56:51;100530.16;;;16.46;100.00
55679;BME280;41573;51.446;-2.018;2022-08-19T05:59:19;100531.13;;;16.45;100.00
55679;BME280;41573;51.446;-2.018;2022-08-19T06:01:48;100532.97;;;16.45;100.00
55679;BME280;41573;51.446;-2.018;2022-08-19T06:04:20;100543.25;;;16.40;100.00
55679;BME280;41573;51.446;-2.018;2022-08-19T06:06:47;100540.91;;;16.46;100.00
55679;BME280;41573;51.446;-2.018;2022-08-19T06:09:13;100533.69;;;16.47;100.00
55679;BME280;41573;51.446;-2.018;2022-08-19T06:11:47;100544.44;;;16.47;100.00
55679;BME280;41573;51.446;-2.018;2022-08-19T06:14:17;100534.44;;;16.49;100.00
55679;BME280;41573;51.446;-2.018;2022-08-19T06:16:44;100542.09;;;16.53;100.00
55679;BME280;41573;51.446;-2.018;2022-08-19T06:19:12;100541.69;;;16.58;100.00
55679;BME280;41573;51.446;-2.018;2022-08-19T06:21:40;100545.94;;;16.61;100.00
55679;BME280;41573;51.446;-2.018;2022-08-19T06:24:07;100542.94;;;16.54;100.00
55679;BME280;41573;51.446;-2.018;2022-08-19T06:26:35;100537.41;;;16.55;100.00
55679;BME280;41573;51.446;-2.018;2022-08-19T06:29:01;100531.91;;;16.57;100.00
55679;BME280;41573;51.446;-2.018;2022-08-19T06:31:28;100542.94;;;16.54;100.00
55679;BME280;41573;51.446;-2.018;2022-08-19T06:33:54;100536.72;;;16.53;100.00
55679;BME280;41573;51.446;-2.018;2022-08-19T06:36:28;100546.88;;;16.50;100.00
55679;BME280;41573;51.446;-2.018;2022-08-19T06:39:07;100540.50;;;16.51;100.00
55679;BME280;41573;51.446;-2.018;2022-08-19T06:41:38;100544.56;;;16.45;100.00
55679;BME280;41573;51.446;-2.018;2022-08-19T06:44:04;100547.47;;;16.53;100.00
55679;BME280;41573;51.446;-2.018;2022-08-19T06:46:30;100538.34;;;16.45;100.00
55679;BME280;41573;51.446;-2.018;2022-08-19T06:48:56;100539.59;;;16.41;100.00
55679;BME280;41573;51.446;-2.018;2022-08-19T06:51:22;100539.53;;;16.31;100.00
55679;BME280;41573;51.446;-2.018;2022-08-19T06:53:50;100543.06;;;16.31;100.00
55679;BME280;41573;51.446;-2.018;2022-08-19T06:56:19;100545.81;;;16.41;100.00
55679;BME280;41573;51.446;-2.018;2022-08-19T06:58:44;100539.19;;;16.45;100.00
55679;BME280;41573;51.446;-2.018;2022-08-19T07:01:12;100541.06;;;16.45;100.00
55679;BME280;41573;51.446;-2.018;2022-08-19T07:03:38;100553.25;;;16.49;100.00
55679;BME280;41573;51.446;-2.018;2022-08-19T07:06:10;100544.44;;;16.47;100.00
55679;BME280;41573;51.446;-2.018;2022-08-19T07:08:36;100551.06;;;16.43;100.00
55679;BME280;41573;51.446;-2.018;2022-08-19T07:11:05;100558.16;;;16.44;100.00
55679;BME280;41573;51.446;-2.018;2022-08-19T07:13:32;100551.59;;;16.36;100.00
55679;BME280;41573;51.446;-2.018;2022-08-19T07:16:09;100561.09;;;16.41;100.00
55679;BME280;41573;51.446;-2.018;2022-08-19T07:18:35;100565.81;;;16.48;100.00
55679;BME280;41573;51.446;-2.018;2022-08-19T07:21:06;100564.91;;;16.59;100.00
55679;BME280;41573;51.446;-2.018;2022-08-19T07:23:32;100573.59;;;16.51;100.00
55679;BME280;41573;51.446;-2.018;2022-08-19T07:25:57;100573.31;;;16.45;100.00
55679;BME280;41573;51.446;-2.018;2022-08-19T07:28:23;100575.44;;;16.51;100.00
55679;BME280;41573;51.446;-2.018;2022-08-19T07:30:48;100580.63;;;16.64;100.00
55679;BME280;41573;51.446;-2.018;2022-08-19T07:33:16;100575.72;;;16.69;100.00
55679;BME280;41573;51.446;-2.018;2022-08-19T07:35:42;100582.13;;;16.78;100.00
55679;BME280;41573;51.446;-2.018;2022-08-19T07:38:09;100576.72;;;16.89;100.00
55679;BME280;41573;51.446;-2.018;2022-08-19T07:40:35;100577.69;;;16.88;100.00
55679;BME280;41573;51.446;-2.018;2022-08-19T07:43:00;100574.91;;;16.99;100.00
55679;BME280;41573;51.446;-2.018;2022-08-19T07:45:26;100569.53;;;16.99;100.00
55679;BME280;41573;51.446;-2.018;2022-08-19T07:47:54;100563.78;;;17.14;100.00
55679;BME280;41573;51.446;-2.018;2022-08-19T07:50:20;100571.56;;;17.17;100.00
55679;BME280;41573;51.446;-2.018;2022-08-19T07:52:47;100580.56;;;17.27;100.00
55679;BME280;41573;51.446;-2.018;2022-08-19T07:55:16;100574.16;;;17.18;100.00
55679;BME280;41573;51.446;-2.018;2022-08-19T07:57:42;100578.41;;;17.21;100.00
55679;BME280;41573;51.446;-2.018;2022-08-19T08:00:08;100586.66;;;17.29;100.00
55679;BME280;41573;51.446;-2.018;2022-08-19T08:02:33;100595.56;;;17.20;100.00
55679;BME280;41573;51.446;-2.018;2022-08-19T08:04:59;100584.34;;;17.15;100.00
55679;BME280;41573;51.446;-2.018;2022-08-19T08:07:43;100583.78;;;17.21;100.00
55679;BME280;41573;51.446;-2.018;2022-08-19T08:10:27;100594.91;;;17.37;100.00
55679;BME280;41573;51.446;-2.018;2022-08-19T08:12:52;100580.88;;;17.44;100.00
55679;BME280;41573;51.446;-2.018;2022-08-19T08:15:18;100587.53;;;17.39;100.00
55679;BME280;41573;51.446;-2.018;2022-08-19T08:17:44;100587.41;;;17.51;100.00
55679;BME280;41573;51.446;-2.018;2022-08-19T08:20:11;100591.66;;;17.44;100.00
55679;BME280;41573;51.446;-2.018;2022-08-19T08:22:36;100595.19;;;17.34;100.00
55679;BME280;41573;51.446;-2.018;2022-08-19T08:25:22;100600.47;;;17.46;100.00
55679;BME280;41573;51.446;-2.018;2022-08-19T08:27:49;100598.03;;;17.43;100.00
55679;BME280;41573;51.446;-2.018;2022-08-19T08:30:25;100605.66;;;17.37;100.00
55679;BME280;41573;51.446;-2.018;2022-08-19T08:32:51;100608.81;;;17.43;100.00
55679;BME280;41573;51.446;-2.018;2022-08-19T08:35:19;100617.91;;;17.51;100.00
55679;BME280;41573;51.446;-2.018;2022-08-19T08:37:46;100616.50;;;17.57;100.00
55679;BME280;41573;51.446;-2.018;2022-08-19T08:40:33;100619.47;;;17.54;100.00
55679;BME280;41573;51.446;-2.018;2022-08-19T08:43:04;100624.97;;;17.52;100.00
55679;BME280;41573;51.446;-2.018;2022-08-19T08:45:33;100632.31;;;17.40;100.00
55679;BME280;41573;51.446;-2.018;2022-08-19T08:48:07;100627.53;;;17.44;100.00
55679;BME280;41573;51.446;-2.018;2022-08-19T08:50:40;100635.56;;;17.34;100.00
55679;BME280;41573;51.446;-2.018;2022-08-19T08:53:08;100633.16;;;17.41;100.00
55679;BME280;41573;51.446;-2.018;2022-08-19T08:55:36;100625.84;;;17.53;100.00
55679;BME280;41573;51.446;-2.018;2022-08-19T08:58:06;100633.22;;;17.61;100.00
55679;BME280;41573;51.446;-2.018;2022-08-19T09:00:36;100632.63;;;17.47;100.00
55679;BME280;41573;51.446;-2.018;2022-08-19T09:03:03;100641.75;;;17.66;100.00
55679;BME280;41573;51.446;-2.018;2022-08-19T09:05:55;100638.06;;;17.57;100.00
55679;BME280;41573;51.446;-2.018;2022-08-19T09:08:49;100627.59;;;17.73;100.00
55679;BME280;41573;51.446;-2.018;2022-08-19T09:16:46;100630.13;;;17.75;99.07
55679;BME280;41573;51.446;-2.018;2022-08-19T09:19:14;100628.31;;;17.75;98.54
55679;BME280;41573;51.446;-2.018;2022-08-19T09:21:40;100634.41;;;17.78;97.90
55679;BME280;41573;51.446;-2.018;2022-08-19T09:24:06;100639.25;;;17.84;100.00
55679;BME280;41573;51.446;-2.018;2022-08-19T09:26:32;100642.38;;;17.89;97.85
55679;BME280;41573;51.446;-2.018;2022-08-19T09:28:58;100640.94;;;17.85;94.23
55679;BME280;41573;51.446;-2.018;2022-08-19T09:31:26;100636.00;;;17.90;95.73
55679;BME280;41573;51.446;-2.018;2022-08-19T09:33:52;100645.84;;;18.11;99.12
55679;BME280;41573;51.446;-2.018;2022-08-19T09:36:23;100636.47;;;18.05;93.52
55679;BME280;41573;51.446;-2.018;2022-08-19T09:38:50;100637.91;;;18.19;94.20
55679;BME280;41573;51.446;-2.018;2022-08-19T09:41:18;100628.84;;;18.20;96.42
55679;BME280;41573;51.446;-2.018;2022-08-19T09:43:46;100630.28;;;18.34;97.70
55679;BME280;41573;51.446;-2.018;2022-08-19T09:46:13;100623.72;;;18.46;97.92
55679;BME280;41573;51.446;-2.018;2022-08-19T09:48:39;100629.09;;;18.56;94.10
55679;BME280;41573;51.446;-2.018;2022-08-19T09:51:09;100630.81;;;18.57;86.95
55679;BME280;41573;51.446;-2.018;2022-08-19T09:53:35;100631.66;;;18.67;90.13
55679;BME280;41573;51.446;-2.018;2022-08-19T09:56:03;100630.22;;;18.63;87.15
55679;BME280;41573;51.446;-2.018;2022-08-19T09:58:29;100630.22;;;18.83;97.83
55679;BME280;41573;51.446;-2.018;2022-08-19T10:00:56;100633.94;;;18.62;82.65
55679;BME280;41573;51.446;-2.018;2022-08-19T10:03:24;100636.19;;;18.76;85.44
55679;BME280;41573;51.446;-2.018;2022-08-19T10:05:49;100633.34;;;18.78;85.54
55679;BME280;41573;51.446;-2.018;2022-08-19T10:08:26;100633.38;;;18.88;84.75
55679;BME280;41573;51.446;-2.018;2022-08-19T10:10:53;100639.75;;;18.87;81.00
55679;BME280;41573;51.446;-2.018;2022-08-19T10:13:22;100649.81;;;18.94;84.98
55679;BME280;41573;51.446;-2.018;2022-08-19T10:15:51;100640.19;;;18.92;80.09
55679;BME280;41573;51.446;-2.018;2022-08-19T10:18:19;100648.94;;;19.04;82.19
55679;BME280;41573;51.446;-2.018;2022-08-19T10:20:46;100643.28;;;18.97;79.10
55679;BME280;41573;51.446;-2.018;2022-08-19T10:23:12;100631.66;;;18.87;78.68
55679;BME280;41573;51.446;-2.018;2022-08-19T10:25:38;100640.31;;;18.71;78.02
55679;BME280;41573;51.446;-2.018;2022-08-19T10:28:04;100645.56;;;18.72;80.81
55679;BME280;41573;51.446;-2.018;2022-08-19T10:30:31;100657.47;;;18.80;81.98
55679;BME280;41573;51.446;-2.018;2022-08-19T10:32:57;100646.13;;;18.76;81.20
55679;BME280;41573;51.446;-2.018;2022-08-19T10:35:22;100646.41;;;18.92;84.58
55679;BME280;41573;51.446;-2.018;2022-08-19T10:37:51;100659.13;;;19.20;83.19
55679;BME280;41573;51.446;-2.018;2022-08-19T10:40:17;100651.91;;;19.20;78.88
55679;BME280;41573;51.446;-2.018;2022-08-19T10:42:42;100652.91;;;19.09;78.89
55679;BME280;41573;51.446;-2.018;2022-08-19T10:45:09;100640.72;;;18.95;76.85
55679;BME280;41573;51.446;-2.018;2022-08-19T10:47:36;100646.44;;;19.30;85.54
55679;BME280;41573;51.446;-2.018;2022-08-19T10:50:03;100641.69;;;19.52;81.58
55679;BME280;41573;51.446;-2.018;2022-08-19T10:52:48;100644.75;;;19.57;80.30
55679;BME280;41573;51.446;-2.018;2022-08-19T10:55:14;100649.50;;;19.07;77.85
55679;BME280;41573;51.446;-2.018;2022-08-19T10:57:58;100650.38;;;18.98;81.68
55679;BME280;41573;51.446;-2.018;2022-08-19T11:00:24;100649.94;;;19.03;85.36
55679;BME280;41573;51.446;-2.018;2022-08-19T11:02:51;100649.25;;;19.01;84.08
55679;BME280;41573;51.446;-2.018;2022-08-19T11:05:17;100650.09;;;19.01;88.80
55679;BME280;41573;51.446;-2.018;2022-08-19T11:07:43;100639.88;;;18.85;93.26
55679;BME280;41573;51.446;-2.018;2022-08-19T11:10:11;100646.00;;;18.68;91.18
55679;BME280;41573;51.446;-2.018;2022-08-19T11:12:38;100644.84;;;18.70;94.69
55679;BME280;41573;51.446;-2.018;2022-08-19T11:15:05;100650.97;;;18.72;98.79
55679;BME280;41573;51.446;-2.018;2022-08-19T11:17:31;100645.97;;;18.77;100.00
55679;BME280;41573;51.446;-2.018;2022-08-19T11:19:57;100653.06;;;18.78;100.00
55679;BME280;41573;51.446;-2.018;2022-08-19T11:22:22;100642.03;;;18.62;100.00
55679;BME280;41573;51.446;-2.018;2022-08-19T11:24:47;100646.13;;;18.66;100.00
55679;BME280;41573;51.446;-2.018;2022-08-19T11:27:13;100647.84;;;18.87;100.00
55679;BME280;41573;51.446;-2.018;2022-08-19T11:29:39;100640.19;;;18.92;100.00
55679;BME280;41573;51.446;-2.018;2022-08-19T11:32:07;100651.19;;;19.08;100.00
55679;BME280;41573;51.446;-2.018;2022-08-19T11:34:34;100649.59;;;19.25;100.00
55679;BME280;41573;51.446;-2.018;2022-08-19T11:37:01;100655.28;;;19.22;92.18
55679;BME280;41573;51.446;-2.018;2022-08-19T11:39:30;100651.56;;;19.33;98.73
55679;BME280;41573;51.446;-2.018;2022-08-19T11:41:58;100652.53;;;19.42;98.83
55679;BME280;41573;51.446;-2.018;2022-08-19T11:44:24;100648.91;;;19.51;97.23
55679;BME280;41573;51.446;-2.018;2022-08-19T11:46:50;100649.31;;;19.56;100.00
55679;BME280;41573;51.446;-2.018;2022-08-19T11:49:18;100648.34;;;19.75;98.82
55679;BME280;41573;51.446;-2.018;2022-08-19T11:51:45;100646.38;;;19.77;95.01
55679;BME280;41573;51.446;-2.018;2022-08-19T11:54:11;100652.94;;;19.75;87.87
55679;BME280;41573;51.446;-2.018;2022-08-19T11:56:38;100634.78;;;19.95;96.22
55679;BME280;41573;51.446;-2.018;2022-08-19T11:59:03;100642.25;;;20.01;90.10
55679;BME280;41573;51.446;-2.018;2022-08-19T12:01:29;100637.69;;;19.84;92.03
55679;BME280;41573;51.446;-2.018;2022-08-19T12:03:56;100654.38;;;19.69;nan
55679;BME280;41573;51.446;-2.018;2022-08-19T12:06:24;100642.78;;;19.87;96.82
55679;BME280;41573;51.446;-2.018;2022-08-19T12:08:54;100636.47;;;19.96;95.85
55679;BME280;41573;51.446;-2.018;2022-08-19T12:11:20;100643.97;;;20.02;90.13
55679;BME280;41573;51.446;-2.018;2022-08-19T12:13:45;100642.34;;;19.91;89.47
55679;BME280;41573;51.446;-2.018;2022-08-19T12:16:26;100647.09;;;19.79;86.86
55679;BME280;41573;51.446;-2.018;2022-08-19T12:18:52;100649.44;;;19.64;94.33
55679;BME280;41573;51.446;-2.018;2022-08-19T12:21:22;100648.34;;;19.75;96.34
55679;BME280;41573;51.446;-2.018;2022-08-19T12:23:49;100639.88;;;19.98;97.03
55679;BME280;41573;51.446;-2.018;2022-08-19T12:26:16;100648.53;;;20.02;92.85
55679;BME280;41573;51.446;-2.018;2022-08-19T12:28:41;100656.16;;;19.78;89.77
55679;BME280;41573;51.446;-2.018;2022-08-19T12:31:07;100646.56;;;19.38;94.77
55679;BME280;41573;51.446;-2.018;2022-08-19T12:33:33;100647.94;;;19.15;99.60
55679;BME280;41573;51.446;-2.018;2022-08-19T12:36:07;100659.13;;;19.20;100.00
55679;BME280;41573;51.446;-2.018;2022-08-19T12:38:33;100656.56;;;19.18;100.00
55679;BME280;41573;51.446;-2.018;2022-08-19T12:41:01;100659.16;;;19.10;100.00
55679;BME280;41573;51.446;-2.018;2022-08-19T12:43:33;100663.09;;;19.16;100.00